A- A+ FrançaisEnglishEspañol中国

Services sur Internet Soldes sur Internet Des idées de cadeaux Météo Météo aéro

La météo à : Autours de vous Tarbes-Lourdes-PyrénéesRennes-St-Jacques RolampontAix-Les Milles

La météo aéronautique pour les pilotes, la préparation du vol avec les METAR (METeorological Aerodrome Report, message d'observation des conditions météorologiques pour l'aviation) et Les TAF (Terminal Aerodrome Forecast : message de prévision à court terme des conditions météorologiques pour l'aviation). Et les autres ressources comme les VAC (Visual Approch Chart) et les NOTAM (Notice To Airman) pour préprer les vols.

Aéroport Joensuu (Finlande) / OACI EFJO/ IATA JOE

L'altitude de l'aéroport Joensuu est de 121 m = 397 ft. Il est situé à proximité de Joensuu Liperi (Finlande). La météo générale à 5 jours est disponible pour Ristisaari situé à 10.9 km.

METAR de l'aéroport Joensuu - EFJO

EFJO 092250Z 29013KT 9999 BKN016 M02/M05 Q0989

Décodage du METAR de l'aéroport Joensuu (FI)

METAR émis par EFJO le lundi 9 décembre 2019 à 22:50 heure TU, il y a 21 minutes.

La visibilité est de supérieure à 10 km = supérieure à 6.2 sm.

La température est de -2°C = 28 °F et le point rosée est de -5°C = 23 °F . Ce qui correspond à 80% d'humidité relative.

Le QNH est de 989 hPa = 29.21 inHg

Vent de 13 kt = 24 km/h, orienté à 290°.

Nuages : Couverture nuageuse fragmentée à 1600 ft = 490 mètres.

TAF de l'aéroport Joensuu - EFJO

EFJO 092027Z 0921/0923 28010KT 9999 BKN020

EFJO 092027Z 0921/0923 28010KT 9999 couverture nuageuse fragmentée à 020

Aéroport à proximité de Joensuu

Météo générale à 5 jours à Ristisaari (10.9 km)Aéroport Pyhaselka (31 km)Aéroport Kitee (60 km)Aéroport Savonlinna (87 km)Aéroport Rantasalmi (93 km)Aéroport Lieska Nurmes (94 km)Aéroport Kuopio (100 km)

VAC de l'aéroport Joensuu - EFJO

La carte d'approche à vue (VAC Visual Approah Chart) est fournie sans aucune garantie de son actualité. Le pilote est le seul responsable de la vérification de sa validité avant de l'utiliser opérationnellement pour préparer un vol ou l'utiliser lors de sa navigation.

VAC de EFJO

Vue aérienne de l'aéroport Joensuu

NOTAM de l'aéroport Joensuu

Les NOTAM sont fournis sans aucune garantie de leur actualité. Le pilote est le seul responsable de la vérification de sa validité avant de l'utiliser opérationnellement pour préparer un vol ou l'utiliser lors de sa navigation.

Pas de NOTAM

Sources des données